Time;durP1;ratioP1;P1;durP2;ratioP2;P2;SDS_P1;SDS_P2;PMS_P1;PMS_P2;Temp;Humidity;BMP_temperature;BMP_pressure;BME280_temperature;BME280_humidity;BME280_pressure;Samples;Min_cycle;Max_cycle;Signal;HPM_P1;HPM_P2
2022/01/11 00:00:36;;;;;;;35.40;18.35;;;9.60;99.90;;;;;;5294116;28;20328;-72
2022/01/11 00:03:08;;;;;;;32.97;17.52;;;9.70;99.90;;;;;;5294147;28;20020;-72
2022/01/11 00:05:47;;;;;;;44.28;17.80;;;9.60;99.90;;;;;;5294046;28;20463;-72
2022/01/11 00:08:19;;;;;;;30.05;15.40;;;9.60;99.90;;;;;;5294106;28;20073;-71
2022/01/11 00:10:53;;;;;;;33.95;17.15;;;9.60;99.90;;;;;;5293951;28;20024;-74
2022/01/11 00:13:24;;;;;;;36.47;17.30;;;9.70;99.90;;;;;;5294002;28;20102;-72
2022/01/11 00:15:54;;;;;;;32.72;16.75;;;9.70;99.90;;;;;;5293549;28;20126;-72
2022/01/11 00:18:25;;;;;;;40.13;17.38;;;9.70;99.90;;;;;;5294044;28;20024;-72
2022/01/11 00:20:56;;;;;;;32.60;16.85;;;9.70;99.90;;;;;;5293854;28;20027;-72
2022/01/11 00:25:59;;;;;;;42.25;16.58;;;9.70;99.90;;;;;;5293883;28;20382;-72
2022/01/11 00:28:30;;;;;;;33.40;16.85;;;9.70;99.90;;;;;;5293751;28;20023;-71
2022/01/11 00:31:03;;;;;;;35.55;14.93;;;9.60;99.90;;;;;;5293698;28;20346;-72
2022/01/11 00:33:42;;;;;;;31.33;16.02;;;9.60;99.90;;;;;;5293636;28;20498;-72
2022/01/11 00:36:13;;;;;;;45.13;17.15;;;9.60;99.90;;;;;;5293580;28;20127;-72
2022/01/11 00:38:44;;;;;;;43.35;18.38;;;9.60;99.90;;;;;;5293550;28;20095;-72
2022/01/11 00:41:15;;;;;;;52.45;21.15;;;9.60;99.90;;;;;;5293499;28;20028;-72
2022/01/11 00:43:46;;;;;;;44.45;19.65;;;9.60;99.90;;;;;;5293478;28;20440;-72
2022/01/11 00:46:17;;;;;;;45.45;20.85;;;9.50;99.90;;;;;;5293283;28;20086;-72
2022/01/11 00:48:47;;;;;;;52.67;21.60;;;9.50;99.90;;;;;;5293299;28;20465;-72
2022/01/11 00:51:18;;;;;;;46.75;21.73;;;9.50;99.90;;;;;;5293381;28;20031;-72
2022/01/11 00:53:49;;;;;;;52.97;20.35;;;9.50;99.90;;;;;;5293201;28;20024;-72
2022/01/11 00:56:20;;;;;;;51.28;21.98;;;9.40;99.90;;;;;;5293051;28;20379;-72
2022/01/11 00:58:51;;;;;;;46.70;20.70;;;9.40;99.90;;;;;;5292339;28;20022;-72
2022/01/11 01:01:22;;;;;;;46.17;19.75;;;9.50;99.90;;;;;;5293048;28;20027;-72
2022/01/11 01:03:54;;;;;;;43.30;19.75;;;9.40;99.90;;;;;;5293170;28;20356;-72
2022/01/11 01:06:25;;;;;;;47.60;20.25;;;9.40;99.90;;;;;;5293027;28;20359;-72
2022/01/11 01:08:56;;;;;;;53.58;19.55;;;9.40;99.90;;;;;;5292983;28;20026;-71
2022/01/11 01:11:27;;;;;;;48.92;20.48;;;9.50;99.90;;;;;;5292644;28;20493;-72
2022/01/11 01:13:58;;;;;;;44.95;20.25;;;9.60;99.90;;;;;;5292854;28;20061;-72
2022/01/11 01:16:29;;;;;;;43.88;18.80;;;9.40;99.90;;;;;;5292687;28;20065;-72
2022/01/11 01:19:00;;;;;;;38.97;19.38;;;9.40;99.90;;;;;;5292789;28;20482;-72
2022/01/11 01:21:37;;;;;;;39.67;18.08;;;9.40;99.90;;;;;;5292746;28;20028;-72
2022/01/11 01:24:11;;;;;;;42.08;18.83;;;9.40;99.90;;;;;;5292459;28;20043;-72
2022/01/11 01:26:42;;;;;;;43.15;18.67;;;9.50;99.90;;;;;;5292506;28;20028;-72
2022/01/11 01:29:12;;;;;;;42.95;18.58;;;9.40;99.90;;;;;;5292533;28;20020;-71
2022/01/11 01:31:43;;;;;;;46.42;19.00;;;9.40;99.90;;;;;;5292435;28;20402;-73
2022/01/11 01:34:14;;;;;;;37.55;18.98;;;9.40;99.90;;;;;;5292157;28;20058;-72
2022/01/11 01:36:45;;;;;;;39.85;17.42;;;9.40;99.90;;;;;;5292329;28;20084;-72
2022/01/11 01:39:16;;;;;;;46.88;17.08;;;9.40;99.90;;;;;;5292383;28;20027;-71
2022/01/11 01:41:51;;;;;;;34.67;16.02;;;9.40;99.90;;;;;;5291874;28;20027;-75
2022/01/11 01:44:26;;;;;;;44.13;18.08;;;9.40;99.90;;;;;;5291491;28;20023;-75
2022/01/11 01:47:02;;;;;;;40.85;16.65;;;9.40;99.90;;;;;;5291286;28;20034;-77
2022/01/11 01:49:39;;;;;;;36.60;18.00;;;9.40;99.90;;;;;;5291350;28;20028;-75
2022/01/11 01:52:15;;;;;;;44.97;18.33;;;9.50;99.90;;;;;;5291261;28;20020;-76
2022/01/11 01:54:49;;;;;;;38.92;16.83;;;9.40;99.90;;;;;;5290987;28;20028;-77
2022/01/11 01:57:25;;;;;;;31.40;15.40;;;9.50;99.90;;;;;;5289785;28;20019;-77
2022/01/11 01:59:57;;;;;;;35.30;17.27;;;9.50;99.90;;;;;;5291076;28;20019;-76
2022/01/11 02:02:27;;;;;;;33.50;15.52;;;9.40;99.90;;;;;;5291649;28;20475;-72
2022/01/11 02:04:58;;;;;;;37.50;17.10;;;9.50;99.90;;;;;;5291393;28;20062;-72
2022/01/11 02:07:29;;;;;;;33.60;16.23;;;9.40;99.90;;;;;;5291766;28;20048;-72
2022/01/11 02:10:01;;;;;;;38.50;16.58;;;9.40;99.90;;;;;;5291741;28;20034;-72
2022/01/11 02:12:32;;;;;;;36.28;15.68;;;9.40;99.90;;;;;;5291540;28;20024;-72
2022/01/11 02:15:04;;;;;;;33.65;14.88;;;9.40;99.90;;;;;;5291500;28;20042;-72
2022/01/11 02:17:36;;;;;;;34.63;15.45;;;9.40;99.90;;;;;;5291241;28;20069;-72
2022/01/11 02:20:14;;;;;;;32.15;14.60;;;9.40;99.90;;;;;;5291252;28;20027;-73
2022/01/11 02:22:44;;;;;;;43.10;15.18;;;9.40;99.90;;;;;;5291349;28;20490;-72
2022/01/11 02:25:15;;;;;;;33.90;14.35;;;9.30;99.90;;;;;;5291429;28;20032;-72
2022/01/11 02:27:46;;;;;;;34.40;14.48;;;9.30;99.90;;;;;;5291307;28;20019;-72
2022/01/11 02:30:17;;;;;;;35.67;14.65;;;9.30;99.90;;;;;;5291335;28;20024;-71
2022/01/11 02:32:50;;;;;;;31.58;15.15;;;9.40;99.90;;;;;;5291238;28;20051;-72
2022/01/11 02:35:21;;;;;;;36.65;16.27;;;9.30;99.90;;;;;;5290995;28;20042;-74
2022/01/11 02:37:51;;;;;;;32.88;13.18;;;9.30;99.90;;;;;;5289940;28;20467;-72
2022/01/11 02:40:22;;;;;;;35.40;16.40;;;9.20;99.90;;;;;;5291111;27;20023;-72
2022/01/11 02:42:53;;;;;;;33.65;14.48;;;9.30;99.90;;;;;;5290963;28;20102;-71
2022/01/11 02:45:24;;;;;;;30.02;14.63;;;9.20;99.90;;;;;;5290963;28;20023;-72
2022/01/11 02:47:55;;;;;;;35.45;14.80;;;9.30;99.90;;;;;;5291129;28;20367;-72
2022/01/11 02:50:26;;;;;;;36.83;15.25;;;9.30;99.90;;;;;;5290981;28;20034;-72
2022/01/11 02:52:57;;;;;;;32.58;14.27;;;9.30;99.90;;;;;;5290844;27;20050;-72
2022/01/11 02:55:28;;;;;;;33.70;13.95;;;9.30;99.90;;;;;;5290807;28;20035;-71
2022/01/11 02:57:59;;;;;;;30.05;14.52;;;9.20;99.90;;;;;;5290710;28;20027;-72
2022/01/11 03:00:30;;;;;;;31.95;13.70;;;9.20;99.90;;;;;;5290406;28;20055;-71
2022/01/11 03:03:22;;;;;;;32.55;14.98;;;9.10;99.90;;;;;;5290827;28;20062;-72
2022/01/11 03:05:56;;;;;;;38.28;15.10;;;9.20;99.90;;;;;;5290732;28;20032;-72
2022/01/11 03:08:31;;;;;;;29.95;13.68;;;9.10;99.90;;;;;;5290645;28;20023;-72
2022/01/11 03:11:05;;;;;;;26.95;12.98;;;9.10;99.90;;;;;;5289090;28;20477;-72
2022/01/11 03:13:38;;;;;;;25.25;12.20;;;9.10;99.90;;;;;;5289184;28;20164;-71
2022/01/11 03:16:11;;;;;;;31.67;13.32;;;9.10;99.90;;;;;;5290295;28;20122;-71
2022/01/11 03:18:42;;;;;;;19.63;11.75;;;9.20;99.90;;;;;;5290545;28;20019;-71
2022/01/11 03:21:15;;;;;;;30.90;12.82;;;9.20;99.90;;;;;;5289993;28;20367;-71
2022/01/11 03:23:46;;;;;;;27.45;12.02;;;9.10;99.90;;;;;;5290167;28;20031;-71
2022/01/11 03:26:17;;;;;;;23.75;12.05;;;9.00;99.90;;;;;;5290417;28;20099;-72
2022/01/11 03:28:48;;;;;;;22.58;11.00;;;9.10;99.90;;;;;;5290307;28;20020;-72
2022/01/11 03:31:22;;;;;;;21.52;11.10;;;9.10;99.90;;;;;;5290289;28;20034;-72
2022/01/11 03:33:53;;;;;;;28.60;12.55;;;9.10;99.90;;;;;;5290201;28;20030;-71
2022/01/11 03:36:24;;;;;;;22.10;11.32;;;9.10;99.90;;;;;;5290140;28;20039;-71
2022/01/11 03:38:55;;;;;;;24.08;10.25;;;9.10;99.90;;;;;;5290247;28;20363;-71
2022/01/11 03:41:26;;;;;;;25.83;13.13;;;9.10;99.90;;;;;;5290375;28;20031;-72
2022/01/11 03:43:56;;;;;;;30.48;12.90;;;9.00;99.90;;;;;;5290097;28;20027;-72
2022/01/11 03:46:27;;;;;;;23.30;11.40;;;9.10;99.90;;;;;;5290317;28;20027;-71
2022/01/11 03:48:58;;;;;;;28.33;13.18;;;9.10;99.90;;;;;;5290286;28;20030;-71
2022/01/11 03:51:29;;;;;;;30.23;12.07;;;9.00;99.90;;;;;;5290137;28;20390;-71
2022/01/11 03:54:08;;;;;;;25.70;13.00;;;9.00;99.90;;;;;;5290147;28;20052;-72
2022/01/11 03:56:39;;;;;;;24.75;11.73;;;9.00;99.90;;;;;;5290093;28;20028;-71
2022/01/11 03:59:10;;;;;;;29.88;13.43;;;9.00;99.90;;;;;;5290030;28;20026;-71
2022/01/11 04:01:40;;;;;;;28.80;12.88;;;9.00;99.90;;;;;;5290159;28;20453;-71
2022/01/11 04:04:12;;;;;;;26.83;12.70;;;8.90;99.90;;;;;;5289944;28;20114;-72
2022/01/11 04:06:43;;;;;;;34.28;12.88;;;9.00;99.90;;;;;;5290057;28;20107;-72
2022/01/11 04:09:15;;;;;;;30.45;12.98;;;9.00;99.90;;;;;;5289954;28;20114;-72
2022/01/11 04:11:46;;;;;;;33.75;12.65;;;9.10;99.90;;;;;;5289938;28;20035;-73
2022/01/11 04:14:17;;;;;;;34.83;13.98;;;9.00;99.90;;;;;;5289839;28;20055;-72
2022/01/11 04:16:48;;;;;;;30.42;13.40;;;8.90;99.90;;;;;;5289610;28;20058;-72
2022/01/11 04:19:20;;;;;;;28.77;13.55;;;8.90;99.90;;;;;;5290027;28;20458;-71
2022/01/11 04:21:52;;;;;;;31.52;12.90;;;8.90;99.90;;;;;;5289752;28;20055;-72
2022/01/11 04:24:23;;;;;;;29.02;12.75;;;8.90;99.90;;;;;;5289719;28;20051;-72
2022/01/11 04:26:54;;;;;;;30.20;13.38;;;8.90;99.90;;;;;;5289921;28;20024;-72
2022/01/11 04:29:25;;;;;;;33.63;13.95;;;8.80;99.90;;;;;;5289790;28;20020;-75
2022/01/11 04:31:56;;;;;;;28.17;13.68;;;8.80;99.90;;;;;;5289915;28;20098;-73
2022/01/11 04:34:28;;;;;;;38.28;14.23;;;8.90;99.90;;;;;;5290225;28;20130;-72
2022/01/11 04:36:59;;;;;;;45.65;14.70;;;8.80;99.90;;;;;;5293399;28;20074;-71
2022/01/11 04:39:30;;;;;;;26.38;13.57;;;8.90;99.90;;;;;;5292333;28;20019;-72
2022/01/11 04:42:01;;;;;;;26.80;13.98;;;8.90;99.90;;;;;;5293311;28;20081;-72
2022/01/11 04:44:32;;;;;;;40.55;14.27;;;8.80;99.90;;;;;;5292166;28;20111;-72
2022/01/11 04:47:03;;;;;;;29.10;11.15;;;8.80;99.90;;;;;;5293452;28;20099;-72
2022/01/11 04:49:33;;;;;;;29.13;12.60;;;8.80;99.90;;;;;;5293388;28;20038;-72
2022/01/11 04:52:06;;;;;;;32.47;12.73;;;8.70;99.90;;;;;;5293203;28;20024;-72
2022/01/11 04:54:37;;;;;;;35.05;12.32;;;8.80;99.90;;;;;;5292769;28;20028;-72
2022/01/11 04:57:08;;;;;;;24.13;10.85;;;8.80;99.90;;;;;;5292800;28;20475;-72
2022/01/11 04:59:39;;;;;;;29.33;11.25;;;8.80;99.90;;;;;;5293071;28;20027;-74
2022/01/11 05:02:10;;;;;;;25.88;12.30;;;8.90;99.90;;;;;;5293142;28;20081;-72
2022/01/11 05:04:41;;;;;;;36.42;11.10;;;8.80;99.90;;;;;;5292930;28;20028;-73
2022/01/11 05:07:12;;;;;;;26.88;9.48;;;8.90;99.90;;;;;;5292929;27;20024;-73
2022/01/11 05:09:42;;;;;;;22.85;9.52;;;8.80;99.90;;;;;;5292947;28;20478;-73
2022/01/11 05:12:13;;;;;;;26.13;9.50;;;8.90;99.90;;;;;;5292792;28;20028;-73
2022/01/11 05:14:44;;;;;;;18.85;9.27;;;8.90;99.90;;;;;;5292780;28;20046;-72
2022/01/11 05:17:15;;;;;;;22.73;9.30;;;8.80;99.90;;;;;;5292866;28;20015;-72
2022/01/11 05:19:46;;;;;;;19.85;8.65;;;8.90;99.90;;;;;;5291605;28;20459;-73
2022/01/11 05:22:17;;;;;;;32.17;10.13;;;8.90;99.90;;;;;;5292758;28;20019;-73
2022/01/11 05:24:47;;;;;;;29.13;10.43;;;8.90;99.90;;;;;;5292475;28;20115;-73
2022/01/11 05:27:18;;;;;;;25.80;10.70;;;9.00;99.90;;;;;;5292576;28;20026;-71
2022/01/11 05:29:50;;;;;;;32.65;10.90;;;8.80;99.90;;;;;;5292552;28;20028;-71
2022/01/11 05:32:20;;;;;;;28.58;10.50;;;8.80;99.90;;;;;;5292481;28;20087;-71
2022/01/11 05:34:51;;;;;;;26.02;10.25;;;8.80;99.90;;;;;;5292135;28;20119;-72
2022/01/11 05:37:22;;;;;;;26.05;10.73;;;8.80;99.90;;;;;;5292467;28;20054;-72
2022/01/11 05:39:53;;;;;;;29.83;11.05;;;8.80;99.90;;;;;;5292361;28;20443;-73
2022/01/11 05:42:25;;;;;;;25.52;10.18;;;8.80;99.90;;;;;;5292280;28;20016;-72
2022/01/11 05:44:56;;;;;;;30.77;12.00;;;8.70;99.90;;;;;;5291895;28;20035;-72
2022/01/11 05:47:27;;;;;;;30.20;11.07;;;8.70;99.90;;;;;;5292327;28;20023;-71
2022/01/11 05:50:00;;;;;;;28.20;11.52;;;8.70;99.90;;;;;;5292148;28;20028;-72
2022/01/11 05:52:31;;;;;;;29.83;10.63;;;8.80;99.90;;;;;;5292143;28;20028;-71
2022/01/11 05:55:03;;;;;;;21.80;9.90;;;8.70;99.90;;;;;;5291840;28;20034;-71
2022/01/11 05:57:34;;;;;;;31.90;11.60;;;8.80;99.90;;;;;;5291383;28;20100;-72
2022/01/11 06:00:09;;;;;;;28.67;10.52;;;8.80;99.90;;;;;;5293447;27;20483;-74
2022/01/11 06:02:46;;;;;;;33.33;9.68;;;8.80;99.90;;;;;;5299525;27;20046;-72
2022/01/11 06:05:18;;;;;;;23.65;10.02;;;8.90;99.90;;;;;;5298187;27;20020;-72
2022/01/11 06:07:48;;;;;;;24.10;9.88;;;8.90;99.90;;;;;;5300405;27;20115;-72
2022/01/11 06:10:19;;;;;;;21.65;10.05;;;8.80;99.90;;;;;;5300677;27;20027;-72
2022/01/11 06:12:50;;;;;;;29.10;10.88;;;8.80;99.90;;;;;;5300135;27;20102;-72
2022/01/11 06:15:21;;;;;;;36.13;12.57;;;8.90;99.90;;;;;;5299064;27;20073;-73
2022/01/11 06:17:52;;;;;;;36.17;14.25;;;8.70;99.90;;;;;;5299701;27;20011;-72
2022/01/11 06:20:23;;;;;;;34.13;14.00;;;8.70;99.90;;;;;;5300537;27;20466;-72
2022/01/11 06:22:54;;;;;;;28.23;13.35;;;8.70;99.90;;;;;;5310442;27;20023;-72
2022/01/11 06:25:25;;;;;;;36.78;15.23;;;8.50;99.90;;;;;;5312308;27;20412;-72
2022/01/11 06:27:56;;;;;;;42.53;16.08;;;8.60;99.90;;;;;;5312318;27;20030;-71
2022/01/11 06:30:27;;;;;;;51.53;16.73;;;8.60;99.90;;;;;;5312012;27;20027;-72
2022/01/11 06:32:58;;;;;;;42.25;16.88;;;8.60;99.90;;;;;;5312378;27;20020;-72
2022/01/11 06:35:29;;;;;;;42.20;16.42;;;8.50;99.90;;;;;;5311876;27;20088;-71
2022/01/11 06:38:00;;;;;;;38.28;15.45;;;8.50;99.90;;;;;;5311990;27;20053;-71
2022/01/11 06:40:31;;;;;;;35.35;13.68;;;8.40;99.90;;;;;;5312002;27;20034;-71
2022/01/11 06:43:02;;;;;;;36.60;15.75;;;8.50;99.90;;;;;;5311881;27;20031;-72
2022/01/11 06:45:36;;;;;;;37.65;16.30;;;8.50;99.90;;;;;;5309394;27;20027;-77
2022/01/11 06:48:08;;;;;;;36.05;13.55;;;8.60;99.90;;;;;;5300040;27;20019;-75
2022/01/11 06:50:39;;;;;;;26.88;12.50;;;8.50;99.90;;;;;;5299928;27;20036;-72
2022/01/11 06:53:10;;;;;;;30.92;15.35;;;8.50;99.90;;;;;;5297186;27;20379;-73
2022/01/11 06:55:41;;;;;;;31.75;13.95;;;8.50;99.90;;;;;;5298300;27;20031;-72
2022/01/11 06:58:13;;;;;;;37.47;14.70;;;8.40;99.90;;;;;;5299249;27;20419;-72
2022/01/11 07:00:44;;;;;;;40.47;15.32;;;8.40;99.90;;;;;;5298497;27;20026;-72
2022/01/11 07:03:15;;;;;;;30.52;13.70;;;8.50;99.90;;;;;;5299006;27;20020;-71
2022/01/11 07:05:46;;;;;;;32.28;15.45;;;8.50;99.90;;;;;;5298443;27;20475;-76
2022/01/11 07:08:17;;;;;;;32.85;15.70;;;8.40;99.90;;;;;;5298887;27;20022;-72
2022/01/11 07:10:48;;;;;;;41.65;14.82;;;8.30;99.90;;;;;;5299789;27;20023;-71
2022/01/11 07:13:19;;;;;;;36.67;15.05;;;8.40;99.90;;;;;;5296887;27;20041;-72
2022/01/11 07:15:49;;;;;;;38.53;14.98;;;8.60;99.90;;;;;;5299918;27;20499;-73
2022/01/11 07:18:20;;;;;;;37.78;15.57;;;8.40;99.90;;;;;;5309652;27;20122;-71
2022/01/11 07:20:51;;;;;;;42.65;16.85;;;8.40;99.90;;;;;;5311348;27;20019;-72
2022/01/11 07:23:22;;;;;;;40.05;17.23;;;8.30;99.90;;;;;;5311129;27;20039;-71
2022/01/11 07:25:53;;;;;;;48.78;17.77;;;8.40;99.90;;;;;;5310062;27;20019;-71
2022/01/11 07:28:26;;;;;;;49.08;18.40;;;8.30;99.90;;;;;;5311169;27;20055;-70
2022/01/11 07:30:57;;;;;;;45.83;17.17;;;8.30;99.90;;;;;;5311247;27;20019;-70
2022/01/11 07:33:28;;;;;;;43.35;16.75;;;8.20;99.90;;;;;;5311196;27;20432;-73
2022/01/11 07:35:59;;;;;;;43.78;17.95;;;8.30;99.90;;;;;;5311057;27;20031;-71
2022/01/11 07:38:30;;;;;;;41.47;17.15;;;8.30;99.90;;;;;;5311297;27;20076;-73
2022/01/11 07:41:00;;;;;;;41.47;17.48;;;8.20;99.90;;;;;;5298967;27;20024;-71
2022/01/11 07:43:31;;;;;;;44.63;19.23;;;8.20;99.90;;;;;;5289752;28;20032;-71
2022/01/11 07:46:02;;;;;;;37.78;16.83;;;8.20;99.90;;;;;;5290002;28;20595;-72
2022/01/11 07:48:33;;;;;;;42.55;18.70;;;8.30;99.90;;;;;;5294687;28;20106;-74
2022/01/11 07:51:04;;;;;;;41.13;18.23;;;8.30;99.90;;;;;;5290083;28;20054;-74
2022/01/11 07:53:35;;;;;;;40.75;17.25;;;8.30;99.90;;;;;;5288932;28;20020;-74
2022/01/11 07:56:06;;;;;;;40.00;16.20;;;8.20;99.90;;;;;;5290008;28;20405;-71
2022/01/11 07:58:37;;;;;;;32.65;17.83;;;8.20;99.90;;;;;;5290096;28;20024;-75
2022/01/11 08:01:08;;;;;;;33.65;16.00;;;8.20;99.90;;;;;;5289824;28;20019;-74
2022/01/11 08:03:39;;;;;;;38.25;16.75;;;8.20;99.90;;;;;;5290079;28;20035;-72
2022/01/11 08:06:10;;;;;;;34.55;15.90;;;8.00;99.90;;;;;;5289931;28;20024;-71
2022/01/11 08:08:41;;;;;;;38.10;16.95;;;8.10;99.90;;;;;;5292433;28;20027;-71
2022/01/11 08:11:12;;;;;;;36.10;18.55;;;8.10;99.90;;;;;;5294197;27;20016;-74
2022/01/11 08:13:43;;;;;;;40.83;17.13;;;8.20;99.90;;;;;;5295701;27;20470;-71
2022/01/11 08:16:14;;;;;;;36.60;15.60;;;8.10;99.90;;;;;;5311661;27;20035;-71
2022/01/11 08:18:45;;;;;;;36.20;18.40;;;8.00;99.90;;;;;;5315283;27;20062;-74
2022/01/11 08:21:15;;;;;;;45.72;18.75;;;8.10;99.90;;;;;;5315250;27;20114;-71
2022/01/11 08:23:46;;;;;;;35.88;16.58;;;8.10;99.90;;;;;;5315091;27;20110;-77
2022/01/11 08:26:17;;;;;;;41.58;19.00;;;8.00;99.90;;;;;;5315319;27;20019;-74
2022/01/11 08:28:48;;;;;;;41.13;16.42;;;8.10;99.90;;;;;;5311650;27;20027;-71
2022/01/11 08:31:20;;;;;;;42.88;16.77;;;8.00;99.90;;;;;;5305057;27;20007;-71
2022/01/11 08:33:51;;;;;;;40.20;20.23;;;8.10;99.90;;;;;;5294897;27;20027;-74
2022/01/11 08:36:22;;;;;;;42.08;25.33;;;8.00;99.90;;;;;;5293678;28;20036;-71
2022/01/11 08:38:53;;;;;;;51.47;28.13;;;7.90;99.90;;;;;;5293586;28;20367;-71
2022/01/11 08:41:23;;;;;;;53.05;25.08;;;8.10;99.90;;;;;;5296096;27;20152;-73
2022/01/11 08:43:54;;;;;;;47.78;22.42;;;8.00;99.90;;;;;;5305586;27;20028;-71
2022/01/11 08:46:25;;;;;;;28.80;15.93;;;7.90;99.90;;;;;;5312869;27;20020;-71
2022/01/11 08:48:56;;;;;;;35.00;18.77;;;7.90;99.90;;;;;;5313335;27;20035;-75
2022/01/11 08:51:27;;;;;;;32.78;15.45;;;8.00;99.90;;;;;;5298683;27;20053;-75
2022/01/11 08:54:00;;;;;;;32.90;16.30;;;7.90;99.90;;;;;;5300181;27;20027;-76
2022/01/11 08:56:32;;;;;;;28.58;13.40;;;8.00;99.90;;;;;;5301713;27;20039;-76
2022/01/11 08:59:03;;;;;;;30.05;13.90;;;8.00;99.90;;;;;;5300906;27;20502;-74
2022/01/11 09:01:34;;;;;;;33.45;14.23;;;8.00;99.90;;;;;;5301308;27;20493;-72
2022/01/11 09:04:05;;;;;;;27.52;12.88;;;8.00;99.90;;;;;;5302064;27;20141;-75
2022/01/11 09:06:36;;;;;;;37.33;16.58;;;7.90;99.90;;;;;;5302282;27;20125;-78
2022/01/11 09:09:07;;;;;;;27.77;15.45;;;8.00;99.90;;;;;;5301006;27;20024;-75
2022/01/11 09:11:38;;;;;;;28.88;14.68;;;8.00;99.90;;;;;;5298257;27;20085;-76
2022/01/11 09:14:09;;;;;;;26.67;13.05;;;7.90;99.90;;;;;;5292849;28;20028;-71
2022/01/11 09:16:40;;;;;;;26.15;13.43;;;7.90;99.90;;;;;;5292866;28;20039;-72
2022/01/11 09:19:15;;;;;;;38.60;15.57;;;7.90;99.90;;;;;;5292588;28;20024;-77
2022/01/11 09:21:46;;;;;;;37.00;18.90;;;7.90;99.90;;;;;;5292778;28;20023;-72
2022/01/11 09:24:19;;;;;;;49.53;27.27;;;7.80;99.90;;;;;;5292691;28;20047;-72
2022/01/11 09:26:55;;;;;;;41.40;22.63;;;8.00;99.90;;;;;;5293748;27;20036;-75
2022/01/11 09:29:27;;;;;;;28.85;14.63;;;7.90;99.90;;;;;;5275945;28;20016;-71
2022/01/11 09:31:59;;;;;;;30.60;14.60;;;7.80;99.90;;;;;;5292322;27;20031;-70
2022/01/11 09:34:30;;;;;;;32.97;16.73;;;7.80;99.90;;;;;;5306347;27;20027;-73
2022/01/11 09:37:01;;;;;;;32.92;17.48;;;7.90;99.90;;;;;;5302557;27;20184;-73
2022/01/11 09:39:32;;;;;;;34.65;16.05;;;7.80;99.90;;;;;;5293663;27;20106;-73
2022/01/11 09:42:05;;;;;;;26.17;13.23;;;7.80;99.90;;;;;;5279299;28;20340;-75
2022/01/11 09:44:38;;;;;;;33.65;17.27;;;7.80;99.90;;;;;;5276431;28;20144;-73
2022/01/11 09:47:12;;;;;;;32.60;16.67;;;7.80;99.90;;;;;;5276560;28;20148;-73
2022/01/11 09:49:44;;;;;;;34.15;17.20;;;7.80;99.90;;;;;;5277329;28;20031;-71
2022/01/11 09:52:16;;;;;;;38.80;17.00;;;7.90;99.90;;;;;;5275566;28;20024;-71
2022/01/11 09:54:48;;;;;;;32.60;16.15;;;7.80;99.90;;;;;;5275897;28;20089;-76
2022/01/11 09:57:21;;;;;;;35.28;17.13;;;7.90;99.90;;;;;;5280394;28;20050;-78
2022/01/11 09:59:52;;;;;;;32.10;17.67;;;7.70;99.90;;;;;;5274315;28;20527;-76
2022/01/11 10:02:23;;;;;;;38.55;18.90;;;7.70;99.90;;;;;;5279769;28;20119;-71
2022/01/11 10:05:01;;;;;;;38.38;17.55;;;7.80;99.90;;;;;;5274488;28;20518;-73
2022/01/11 10:07:34;;;;;;;41.35;20.65;;;7.70;99.90;;;;;;5288734;27;20032;-74
2022/01/11 10:10:14;;;;;;;32.28;17.48;;;7.70;99.90;;;;;;5294952;27;20008;-71
2022/01/11 10:12:51;;;;;;;28.58;16.67;;;7.70;99.90;;;;;;5294726;27;20053;-74
2022/01/11 10:15:31;;;;;;;37.17;15.20;;;7.70;99.90;;;;;;5298790;27;20031;-70
2022/01/11 10:18:03;;;;;;;33.97;18.23;;;7.50;99.90;;;;;;5298431;27;20149;-72
2022/01/11 10:20:36;;;;;;;37.72;18.33;;;7.50;99.90;;;;;;5304521;27;20085;-74
2022/01/11 10:23:08;;;;;;;35.83;18.70;;;7.60;99.90;;;;;;5315638;27;20043;-76
2022/01/11 10:25:45;;;;;;;35.47;18.05;;;7.50;99.90;;;;;;5313040;27;20031;-72
2022/01/11 10:28:16;;;;;;;39.65;21.23;;;7.60;99.90;;;;;;5313496;27;20355;-72
2022/01/11 10:30:48;;;;;;;37.95;20.70;;;7.50;99.90;;;;;;5300321;27;20050;-73
2022/01/11 10:33:20;;;;;;;38.95;20.35;;;7.50;99.90;;;;;;5289429;28;20076;-74
2022/01/11 10:35:51;;;;;;;33.35;18.85;;;7.40;99.90;;;;;;5289924;28;20444;-71
2022/01/11 10:38:29;;;;;;;31.63;17.38;;;7.40;99.90;;;;;;5289880;28;20043;-72
2022/01/11 10:41:01;;;;;;;39.17;21.13;;;7.50;99.90;;;;;;5290504;28;20490;-74
2022/01/11 10:43:42;;;;;;;34.63;18.55;;;7.40;99.90;;;;;;5290755;28;20042;-74
2022/01/11 10:46:19;;;;;;;43.70;18.58;;;7.50;99.90;;;;;;5290124;28;20027;-71
2022/01/11 10:48:50;;;;;;;29.17;17.10;;;7.40;99.90;;;;;;5290471;28;20486;-74
2022/01/11 10:51:22;;;;;;;39.30;21.50;;;7.40;99.90;;;;;;5289495;28;20034;-71
2022/01/11 10:53:53;;;;;;;31.70;16.20;;;7.40;99.90;;;;;;5289749;28;20035;-71
2022/01/11 10:56:39;;;;;;;33.97;18.33;;;7.40;99.90;;;;;;5289683;28;20042;-74
2022/01/11 10:59:11;;;;;;;38.17;17.98;;;7.30;99.90;;;;;;5289883;28;20112;-75
2022/01/11 11:01:44;;;;;;;28.90;16.17;;;7.30;99.90;;;;;;5291872;28;20054;-71
2022/01/11 11:04:33;;;;;;;32.58;18.58;;;7.30;99.90;;;;;;5309458;27;20027;-75
2022/01/11 11:07:15;;;;;;;36.03;17.45;;;7.30;99.90;;;;;;5312312;27;20501;-74
2022/01/11 11:09:48;;;;;;;29.23;14.73;;;7.40;99.90;;;;;;5309674;27;20023;-75
2022/01/11 11:12:23;;;;;;;31.20;16.70;;;7.30;99.90;;;;;;5312983;27;20087;-78
2022/01/11 11:14:59;;;;;;;27.35;15.20;;;7.30;99.90;;;;;;5313251;27;20063;-75
2022/01/11 11:17:34;;;;;;;27.63;13.65;;;7.30;99.90;;;;;;5312383;27;20027;-77
2022/01/11 11:20:07;;;;;;;30.98;13.32;;;7.20;99.90;;;;;;5300023;27;20024;-75
2022/01/11 11:22:40;;;;;;;27.20;14.27;;;7.20;99.90;;;;;;5275179;28;20039;-77
2022/01/11 11:25:12;;;;;;;26.17;13.25;;;7.30;99.90;;;;;;5277019;28;20048;-76
2022/01/11 11:27:43;;;;;;;25.55;12.75;;;7.30;99.90;;;;;;5275974;28;20024;-75
2022/01/11 11:30:14;;;;;;;29.80;13.45;;;7.30;99.90;;;;;;5272533;28;20471;-71
2022/01/11 11:32:49;;;;;;;30.63;12.98;;;7.20;99.90;;;;;;5277620;28;20020;-72
2022/01/11 11:35:20;;;;;;;27.60;14.30;;;7.10;99.90;;;;;;5273861;28;20057;-80
2022/01/11 11:38:03;;;;;;;31.55;13.02;;;7.10;99.90;;;;;;5284243;28;20039;-76
2022/01/11 11:40:36;;;;;;;22.15;11.55;;;7.00;99.90;;;;;;5272095;28;20028;-72
2022/01/11 11:43:10;;;;;;;28.25;12.18;;;7.10;99.90;;;;;;5291401;27;20433;-73
2022/01/11 11:45:43;;;;;;;26.48;13.07;;;7.10;99.90;;;;;;5289438;27;20080;-76
2022/01/11 11:48:17;;;;;;;25.40;14.40;;;7.10;99.90;;;;;;5276972;28;20043;-73
2022/01/11 11:50:57;;;;;;;26.15;13.68;;;7.20;99.90;;;;;;5282248;28;20525;-77
2022/01/11 11:53:37;;;;;;;30.50;13.80;;;7.10;99.90;;;;;;5285357;28;20035;-76
2022/01/11 11:56:19;;;;;;;39.30;17.13;;;7.10;99.90;;;;;;5283710;28;20043;-72
2022/01/11 11:58:56;;;;;;;29.73;14.07;;;7.30;99.90;;;;;;5280632;28;20532;-72
2022/01/11 12:01:41;;;;;;;27.60;13.05;;;7.20;99.90;;;;;;5279996;28;20020;-73
2022/01/11 12:04:17;;;;;;;25.45;11.75;;;7.10;99.90;;;;;;5276687;28;20024;-72
2022/01/11 12:06:48;;;;;;;27.90;11.77;;;7.10;99.90;;;;;;5272786;28;20099;-76
2022/01/11 12:09:21;;;;;;;23.55;9.98;;;7.00;99.90;;;;;;5280476;28;20104;-74
2022/01/11 12:11:52;;;;;;;22.05;11.52;;;7.00;99.90;;;;;;5289990;28;20030;-73
2022/01/11 12:14:32;;;;;;;23.08;12.02;;;7.10;99.90;;;;;;5279343;27;20467;-75
2022/01/11 12:17:16;;;;;;;26.45;13.82;;;7.00;99.90;;;;;;5272854;28;20536;-73
2022/01/11 12:19:50;;;;;;;25.40;12.88;;;7.00;99.90;;;;;;5282714;27;20043;-72
2022/01/11 12:22:24;;;;;;;25.95;11.85;;;7.10;99.90;;;;;;5293875;27;20111;-72
2022/01/11 12:24:59;;;;;;;27.58;12.30;;;7.10;99.90;;;;;;5293644;28;20078;-78
2022/01/11 12:27:30;;;;;;;25.73;12.88;;;7.10;99.90;;;;;;5301678;27;20027;-74
2022/01/11 12:30:08;;;;;;;27.67;12.32;;;7.10;99.90;;;;;;5303406;27;20031;-78
2022/01/11 12:33:07;;;;;;;22.45;10.43;;;7.00;99.90;;;;;;5292168;28;20103;-78
2022/01/11 12:35:53;;;;;;;19.85;10.30;;;7.00;99.90;;;;;;5292247;28;20031;-73
2022/01/11 12:38:27;;;;;;;28.67;11.43;;;7.00;99.90;;;;;;5293744;28;20035;-75
2022/01/11 12:40:58;;;;;;;23.73;12.27;;;7.00;99.90;;;;;;5293319;28;20141;-74
2022/01/11 12:43:42;;;;;;;27.33;13.07;;;7.10;99.90;;;;;;5293174;28;20244;-73
2022/01/11 12:46:13;;;;;;;31.08;13.52;;;7.00;99.90;;;;;;5293349;28;20497;-72
2022/01/11 12:48:45;;;;;;;26.20;14.13;;;7.00;99.90;;;;;;5292026;28;20084;-73
2022/01/11 12:51:21;;;;;;;25.25;13.48;;;6.90;99.90;;;;;;5293364;28;20100;-72
2022/01/11 12:54:23;;;;;;;17.73;10.40;;;6.90;99.90;;;;;;5291139;28;20488;-74
2022/01/11 12:56:57;;;;;;;23.63;12.52;;;6.90;99.90;;;;;;5293298;28;20126;-73
2022/01/11 12:59:32;;;;;;;25.30;13.88;;;6.90;99.90;;;;;;5293157;28;20027;-72
2022/01/11 13:02:08;;;;;;;23.98;13.88;;;7.00;99.90;;;;;;5293090;28;20439;-71
2022/01/11 13:04:40;;;;;;;25.25;14.70;;;6.90;99.90;;;;;;5293083;28;20455;-70
2022/01/11 13:07:16;;;;;;;31.15;15.80;;;6.90;99.90;;;;;;5293067;28;20052;-71